Time;durP1;ratioP1;P1;durP2;ratioP2;P2;SDS_P1;SDS_P2;PMS_P1;PMS_P2;Temp;Humidity;BMP_temperature;BMP_pressure;BME280_temperature;BME280_humidity;BME280_pressure;Samples;Min_cycle;Max_cycle;Signal;HPM_P1;HPM_P2
2022/05/20 00:00:10;;;;;;;;;;;20.90;55.70;;;;;;493299;241;1042;-75
2022/05/20 00:02:11;;;;;;;;;;;20.90;55.70;;;;;;493278;241;1088;-75
2022/05/20 00:04:12;;;;;;;;;;;20.90;55.60;;;;;;493224;241;2175;-75
2022/05/20 00:06:14;;;;;;;;;;;20.90;55.60;;;;;;493177;241;1193;-75
2022/05/20 00:08:15;;;;;;;;;;;20.90;55.50;;;;;;493171;241;1239;-75
2022/05/20 00:10:17;;;;;;;;;;;20.90;55.60;;;;;;493490;241;1033;-75
2022/05/20 00:12:19;;;;;;;;;;;20.90;55.60;;;;;;493411;241;1243;-75
2022/05/20 00:14:19;;;;;;;;;;;20.90;55.50;;;;;;493571;241;1509;-75
2022/05/20 00:16:21;;;;;;;;;;;20.90;55.50;;;;;;493252;241;1065;-75
2022/05/20 00:18:22;;;;;;;;;;;20.80;55.50;;;;;;493378;241;1110;-75
2022/05/20 00:20:23;;;;;;;;;;;20.90;55.60;;;;;;493271;241;1160;-75
2022/05/20 00:22:25;;;;;;;;;;;20.80;55.70;;;;;;493226;240;1265;-75
2022/05/20 00:24:26;;;;;;;;;;;20.80;55.60;;;;;;493210;241;2187;-75
2022/05/20 00:26:27;;;;;;;;;;;20.80;55.60;;;;;;493193;241;1105;-75
2022/05/20 00:28:29;;;;;;;;;;;20.80;55.60;;;;;;493542;241;1063;-75
2022/05/20 00:30:30;;;;;;;;;;;20.90;55.70;;;;;;493201;241;985;-75
2022/05/20 00:32:31;;;;;;;;;;;20.90;55.60;;;;;;493219;241;1025;-75
2022/05/20 00:34:33;;;;;;;;;;;20.90;55.50;;;;;;493548;241;1193;-75
2022/05/20 00:36:34;;;;;;;;;;;20.80;55.60;;;;;;493200;241;1002;-75
2022/05/20 00:38:35;;;;;;;;;;;20.80;55.70;;;;;;493242;241;1028;-75
2022/05/20 00:40:37;;;;;;;;;;;20.80;55.70;;;;;;493239;241;972;-75
2022/05/20 00:42:38;;;;;;;;;;;20.80;55.70;;;;;;493217;241;2171;-75
2022/05/20 00:44:39;;;;;;;;;;;20.80;55.70;;;;;;493266;241;979;-75
2022/05/20 00:46:41;;;;;;;;;;;20.70;55.70;;;;;;493224;241;973;-75
2022/05/20 00:48:42;;;;;;;;;;;20.80;55.70;;;;;;493238;241;927;-75
2022/05/20 00:50:43;;;;;;;;;;;20.90;55.60;;;;;;493213;241;1191;-75
2022/05/20 00:52:45;;;;;;;;;;;20.90;55.50;;;;;;493247;241;1046;-75
2022/05/20 00:54:46;;;;;;;;;;;20.90;55.30;;;;;;493257;241;1039;-75
2022/05/20 00:56:47;;;;;;;;;;;20.90;55.50;;;;;;493209;241;1035;-75
2022/05/20 00:58:49;;;;;;;;;;;20.90;55.60;;;;;;493193;241;1224;-75
2022/05/20 01:00:50;;;;;;;;;;;20.90;55.60;;;;;;493196;241;978;-75
2022/05/20 01:02:51;;;;;;;;;;;20.90;55.50;;;;;;493143;241;2187;-75
2022/05/20 01:04:53;;;;;;;;;;;20.90;55.50;;;;;;493157;241;1177;-75
2022/05/20 01:06:54;;;;;;;;;;;20.90;55.40;;;;;;493064;241;978;-75
2022/05/20 01:08:55;;;;;;;;;;;20.90;55.40;;;;;;493144;241;964;-75
2022/05/20 01:10:57;;;;;;;;;;;20.90;55.40;;;;;;493162;241;943;-75
2022/05/20 01:12:58;;;;;;;;;;;20.90;55.40;;;;;;493139;241;1346;-75
2022/05/20 01:14:59;;;;;;;;;;;20.80;55.40;;;;;;493174;241;1198;-75
2022/05/20 01:17:00;;;;;;;;;;;20.80;55.60;;;;;;493329;241;1223;-75
2022/05/20 01:19:02;;;;;;;;;;;20.80;55.50;;;;;;493321;241;1111;-75
2022/05/20 01:21:03;;;;;;;;;;;20.80;55.60;;;;;;493145;241;1165;-75
2022/05/20 01:23:04;;;;;;;;;;;20.80;55.50;;;;;;493197;241;2191;-75
2022/05/20 01:25:06;;;;;;;;;;;20.80;55.50;;;;;;493074;240;1143;-75
2022/05/20 01:27:07;;;;;;;;;;;20.80;55.70;;;;;;493136;241;1092;-75
2022/05/20 01:29:08;;;;;;;;;;;20.70;55.60;;;;;;493228;241;1197;-75
2022/05/20 01:31:10;;;;;;;;;;;20.80;55.60;;;;;;493393;241;1184;-75
2022/05/20 01:33:11;;;;;;;;;;;20.80;55.50;;;;;;493239;241;948;-75
2022/05/20 01:35:13;;;;;;;;;;;20.80;55.40;;;;;;493363;241;1186;-75
2022/05/20 01:37:14;;;;;;;;;;;20.80;55.50;;;;;;493071;241;1175;-75
2022/05/20 01:39:16;;;;;;;;;;;20.80;55.50;;;;;;493194;241;1087;-75
2022/05/20 01:41:17;;;;;;;;;;;20.80;55.50;;;;;;493237;242;1742;-75
2022/05/20 01:43:18;;;;;;;;;;;20.80;55.60;;;;;;493387;241;2128;-75
2022/05/20 01:45:19;;;;;;;;;;;20.80;55.70;;;;;;493213;241;1064;-75
2022/05/20 01:47:21;;;;;;;;;;;20.80;55.50;;;;;;493316;241;1120;-75
2022/05/20 01:49:22;;;;;;;;;;;20.80;55.60;;;;;;493194;241;1103;-75
2022/05/20 01:51:23;;;;;;;;;;;20.80;55.60;;;;;;493322;241;1177;-75
2022/05/20 01:53:25;;;;;;;;;;;20.80;55.40;;;;;;493174;241;1268;-75
2022/05/20 01:55:26;;;;;;;;;;;20.90;55.40;;;;;;493019;241;1106;-75
2022/05/20 01:57:27;;;;;;;;;;;20.90;55.10;;;;;;493009;241;1086;-75
2022/05/20 01:59:28;;;;;;;;;;;21.00;55.20;;;;;;493223;241;1065;-75
2022/05/20 02:01:30;;;;;;;;;;;21.00;55.00;;;;;;493168;241;1160;-75
2022/05/20 02:03:31;;;;;;;;;;;21.00;55.00;;;;;;493302;241;2191;-75
2022/05/20 02:05:32;;;;;;;;;;;21.00;55.00;;;;;;493254;241;1203;-75
2022/05/20 02:07:34;;;;;;;;;;;21.00;55.00;;;;;;493351;241;1227;-75
2022/05/20 02:09:36;;;;;;;;;;;21.00;54.90;;;;;;493275;241;1065;-75
2022/05/20 02:11:36;;;;;;;;;;;21.10;54.80;;;;;;493126;241;1399;-75
2022/05/20 02:13:38;;;;;;;;;;;21.00;54.80;;;;;;493412;241;1061;-75
2022/05/20 02:15:39;;;;;;;;;;;21.00;54.90;;;;;;493151;241;1024;-75
2022/05/20 02:17:41;;;;;;;;;;;21.00;54.90;;;;;;493155;241;1066;-75
2022/05/20 02:19:42;;;;;;;;;;;21.00;55.00;;;;;;493515;241;1172;-75
2022/05/20 02:21:43;;;;;;;;;;;20.90;55.00;;;;;;493157;239;1162;-75
2022/05/20 02:23:44;;;;;;;;;;;20.90;55.10;;;;;;493228;241;2136;-75
2022/05/20 02:25:46;;;;;;;;;;;20.90;55.00;;;;;;493472;241;1191;-75
2022/05/20 02:27:48;;;;;;;;;;;20.90;55.00;;;;;;493279;241;1105;-75
2022/05/20 02:29:48;;;;;;;;;;;20.90;55.00;;;;;;493570;241;1318;-76
2022/05/20 02:31:50;;;;;;;;;;;21.00;54.90;;;;;;493227;241;1145;-75
2022/05/20 02:33:51;;;;;;;;;;;21.00;54.80;;;;;;493235;241;1047;-75
2022/05/20 02:35:52;;;;;;;;;;;21.00;54.80;;;;;;493261;241;1175;-75
2022/05/20 02:37:54;;;;;;;;;;;21.10;54.80;;;;;;493474;241;1105;-75
2022/05/20 02:39:55;;;;;;;;;;;21.00;54.70;;;;;;493235;241;1076;-75
2022/05/20 02:41:56;;;;;;;;;;;21.00;54.70;;;;;;493178;241;1279;-75
2022/05/20 02:43:58;;;;;;;;;;;21.00;54.70;;;;;;493396;241;2251;-75
2022/05/20 02:45:59;;;;;;;;;;;21.00;54.80;;;;;;493159;241;1186;-75
2022/05/20 02:48:00;;;;;;;;;;;21.00;54.80;;;;;;493204;241;1058;-75
2022/05/20 02:50:02;;;;;;;;;;;20.90;54.80;;;;;;493429;241;1142;-75
2022/05/20 02:52:03;;;;;;;;;;;20.90;54.70;;;;;;493197;241;1159;-75
2022/05/20 02:54:05;;;;;;;;;;;20.90;54.70;;;;;;493503;241;1077;-75
2022/05/20 02:56:06;;;;;;;;;;;20.90;54.70;;;;;;493375;241;1058;-75
2022/05/20 02:58:08;;;;;;;;;;;20.90;54.90;;;;;;493199;241;1147;-75
2022/05/20 03:04:47;;;;;;;;;;;21.00;54.50;;;;;;493219;242;2132;-75
2022/05/20 03:06:49;;;;;;;;;;;21.00;54.40;;;;;;493185;241;1194;-75
2022/05/20 03:08:50;;;;;;;;;;;21.00;54.60;;;;;;493182;241;1186;-75
2022/05/20 03:10:51;;;;;;;;;;;21.00;54.70;;;;;;493192;241;1084;-75
2022/05/20 03:12:53;;;;;;;;;;;21.00;54.60;;;;;;493163;241;1099;-75
2022/05/20 03:14:54;;;;;;;;;;;21.00;54.70;;;;;;493195;241;1350;-75
2022/05/20 03:16:55;;;;;;;;;;;20.90;54.70;;;;;;493226;241;1187;-75
2022/05/20 03:18:57;;;;;;;;;;;21.00;54.60;;;;;;493430;241;1165;-75
2022/05/20 03:20:58;;;;;;;;;;;21.00;54.60;;;;;;493206;241;1483;-75
2022/05/20 03:22:59;;;;;;;;;;;20.90;54.70;;;;;;493249;241;946;-75
2022/05/20 03:25:01;;;;;;;;;;;21.00;54.70;;;;;;493278;241;2214;-75
2022/05/20 03:27:03;;;;;;;;;;;21.00;54.70;;;;;;493347;241;1057;-75
2022/05/20 03:29:04;;;;;;;;;;;20.90;54.70;;;;;;493407;241;1433;-75
2022/05/20 03:31:07;;;;;;;;;;;20.90;54.70;;;;;;493151;241;1096;-75
2022/05/20 03:33:06;;;;;;;;;;;20.90;54.80;;;;;;493324;242;1408;-75
2022/05/20 03:35:08;;;;;;;;;;;20.90;54.80;;;;;;493119;241;1160;-75
2022/05/20 03:37:09;;;;;;;;;;;20.90;54.80;;;;;;493132;241;1125;-75
2022/05/20 03:39:10;;;;;;;;;;;20.90;54.70;;;;;;493160;241;1076;-75
2022/05/20 03:41:12;;;;;;;;;;;20.90;54.70;;;;;;493099;241;1159;-75
2022/05/20 03:43:13;;;;;;;;;;;20.90;54.80;;;;;;493126;241;1051;-75
2022/05/20 03:45:14;;;;;;;;;;;20.90;54.70;;;;;;493393;241;2191;-75
2022/05/20 03:47:16;;;;;;;;;;;21.00;54.70;;;;;;493297;241;1171;-75
2022/05/20 03:49:17;;;;;;;;;;;21.00;54.50;;;;;;493475;241;1071;-75
2022/05/20 03:51:18;;;;;;;;;;;21.00;54.50;;;;;;492988;241;1129;-75
2022/05/20 03:53:20;;;;;;;;;;;21.00;54.70;;;;;;493234;241;1089;-75
2022/05/20 03:55:21;;;;;;;;;;;21.00;54.60;;;;;;493190;241;1195;-75
2022/05/20 03:57:22;;;;;;;;;;;21.00;54.60;;;;;;493170;241;1117;-75
2022/05/20 03:59:24;;;;;;;;;;;21.00;54.40;;;;;;493162;241;1148;-75
2022/05/20 04:03:44;;;;;;;;;;;21.00;54.50;;;;;;493506;242;1082;-75
2022/05/20 04:05:45;;;;;;;;;;;21.10;54.50;;;;;;493083;241;2191;-75
2022/05/20 04:07:47;;;;;;;;;;;21.00;54.40;;;;;;493271;241;1153;-75
2022/05/20 04:09:48;;;;;;;;;;;21.00;54.40;;;;;;493115;239;1165;-77
2022/05/20 04:11:50;;;;;;;;;;;21.00;54.50;;;;;;493170;241;1102;-77
2022/05/20 04:13:51;;;;;;;;;;;21.00;54.40;;;;;;493192;241;1076;-77
2022/05/20 04:15:54;;;;;;;;;;;21.10;54.40;;;;;;493160;241;986;-77
2022/05/20 04:17:54;;;;;;;;;;;21.10;54.30;;;;;;493323;242;1331;-77
2022/05/20 04:19:55;;;;;;;;;;;21.00;54.30;;;;;;493218;241;939;-78
2022/05/20 04:21:56;;;;;;;;;;;21.00;54.40;;;;;;493303;241;1155;-78
2022/05/20 04:23:58;;;;;;;;;;;21.00;54.50;;;;;;493048;241;2345;-78
2022/05/20 04:25:59;;;;;;;;;;;21.00;54.60;;;;;;493114;241;1205;-78
2022/05/20 04:28:00;;;;;;;;;;;21.00;54.40;;;;;;493451;241;1282;-78
2022/05/20 04:30:02;;;;;;;;;;;21.00;54.40;;;;;;493132;240;1147;-78
2022/05/20 04:32:03;;;;;;;;;;;21.10;54.40;;;;;;493057;241;1096;-78
2022/05/20 04:34:04;;;;;;;;;;;21.00;54.40;;;;;;493266;241;1167;-78
2022/05/20 04:36:06;;;;;;;;;;;21.00;54.40;;;;;;492909;241;1203;-77
2022/05/20 04:38:07;;;;;;;;;;;21.00;54.40;;;;;;493051;241;1170;-77
2022/05/20 04:40:08;;;;;;;;;;;21.00;54.50;;;;;;493004;241;1186;-77
2022/05/20 04:46:57;;;;;;;;;;;21.10;54.50;;;;;;493132;242;1028;-77
2022/05/20 04:48:58;;;;;;;;;;;21.00;54.50;;;;;;493136;241;1036;-77
2022/05/20 04:51:00;;;;;;;;;;;21.00;54.40;;;;;;493019;241;1025;-78
2022/05/20 04:53:01;;;;;;;;;;;21.20;54.20;;;;;;493020;241;1156;-78
2022/05/20 04:55:02;;;;;;;;;;;21.10;54.20;;;;;;493108;241;1102;-78
2022/05/20 04:57:03;;;;;;;;;;;21.10;54.40;;;;;;493063;241;1050;-78
2022/05/20 04:59:05;;;;;;;;;;;21.10;54.20;;;;;;492949;241;1036;-77
2022/05/20 05:01:06;;;;;;;;;;;21.20;54.20;;;;;;493163;241;1039;-78
2022/05/20 05:03:07;;;;;;;;;;;21.20;54.20;;;;;;493108;241;1218;-77
2022/05/20 05:05:09;;;;;;;;;;;21.20;54.00;;;;;;492927;241;2183;-78
2022/05/20 05:07:11;;;;;;;;;;;21.20;53.90;;;;;;493097;241;1239;-78
2022/05/20 05:09:11;;;;;;;;;;;21.20;54.00;;;;;;492921;241;1329;-78
2022/05/20 05:11:13;;;;;;;;;;;21.10;54.30;;;;;;493421;242;1072;-78
2022/05/20 05:13:15;;;;;;;;;;;21.10;54.30;;;;;;493067;241;1153;-78
2022/05/20 05:15:15;;;;;;;;;;;21.20;54.40;;;;;;493097;241;1256;-78
2022/05/20 05:17:17;;;;;;;;;;;21.10;54.40;;;;;;493095;241;1165;-78
2022/05/20 05:19:18;;;;;;;;;;;21.10;54.30;;;;;;493024;241;1036;-78
2022/05/20 05:21:19;;;;;;;;;;;21.20;54.20;;;;;;493002;241;1156;-77
2022/05/20 05:23:21;;;;;;;;;;;21.20;54.20;;;;;;493332;241;1209;-78
2022/05/20 05:25:22;;;;;;;;;;;21.30;54.10;;;;;;493100;241;2113;-79
2022/05/20 05:27:23;;;;;;;;;;;21.30;54.10;;;;;;493052;241;1113;-78
2022/05/20 05:29:25;;;;;;;;;;;21.30;54.00;;;;;;493087;241;1129;-78
2022/05/20 05:31:26;;;;;;;;;;;21.30;54.00;;;;;;493074;241;1123;-78
2022/05/20 05:33:27;;;;;;;;;;;21.20;54.30;;;;;;493070;241;1212;-78
2022/05/20 05:35:28;;;;;;;;;;;21.20;54.30;;;;;;493232;241;1078;-78
2022/05/20 05:37:30;;;;;;;;;;;21.30;54.40;;;;;;493062;241;1158;-78
2022/05/20 05:39:31;;;;;;;;;;;21.30;54.20;;;;;;492924;241;1109;-78
2022/05/20 05:41:33;;;;;;;;;;;21.30;54.30;;;;;;492936;241;1129;-78
2022/05/20 05:43:34;;;;;;;;;;;21.30;54.20;;;;;;492779;241;1085;-78
2022/05/20 05:45:35;;;;;;;;;;;21.30;54.10;;;;;;492855;241;2191;-78
2022/05/20 05:47:36;;;;;;;;;;;21.30;54.10;;;;;;493029;241;1134;-78
2022/05/20 05:49:38;;;;;;;;;;;21.30;54.10;;;;;;493190;241;1081;-78
2022/05/20 05:51:40;;;;;;;;;;;21.30;54.30;;;;;;492842;241;1134;-78
2022/05/20 05:53:41;;;;;;;;;;;21.20;54.50;;;;;;493278;241;1430;-78
2022/05/20 05:55:42;;;;;;;;;;;21.40;54.30;;;;;;492931;241;1095;-77
2022/05/20 05:57:43;;;;;;;;;;;21.40;54.10;;;;;;492823;241;1072;-78
2022/05/20 05:59:45;;;;;;;;;;;21.40;54.20;;;;;;492854;241;1412;-78
2022/05/20 06:01:46;;;;;;;;;;;21.30;54.30;;;;;;492824;241;1038;-78
2022/05/20 06:03:47;;;;;;;;;;;21.30;54.40;;;;;;492892;241;1057;-78
2022/05/20 06:05:49;;;;;;;;;;;21.40;54.40;;;;;;492960;241;2116;-77
2022/05/20 06:07:51;;;;;;;;;;;21.40;54.40;;;;;;493177;241;1159;-77
2022/05/20 06:09:52;;;;;;;;;;;21.40;54.40;;;;;;493258;241;1427;-77
2022/05/20 06:11:53;;;;;;;;;;;21.50;54.40;;;;;;492964;241;1044;-77
2022/05/20 06:13:56;;;;;;;;;;;21.40;54.50;;;;;;493024;241;1026;-77
2022/05/20 06:15:56;;;;;;;;;;;21.50;54.40;;;;;;493022;242;1444;-77
2022/05/20 06:17:57;;;;;;;;;;;21.50;54.30;;;;;;493051;241;1098;-77
2022/05/20 06:19:58;;;;;;;;;;;21.40;54.50;;;;;;493141;241;1041;-77
2022/05/20 06:22:00;;;;;;;;;;;21.40;54.60;;;;;;493104;241;1175;-77
2022/05/20 06:24:01;;;;;;;;;;;21.50;54.60;;;;;;493065;241;1133;-77
2022/05/20 06:26:02;;;;;;;;;;;21.50;54.50;;;;;;492994;241;2179;-77
2022/05/20 06:28:04;;;;;;;;;;;21.50;54.40;;;;;;493081;241;1218;-77
2022/05/20 06:30:05;;;;;;;;;;;21.50;54.40;;;;;;493179;241;1083;-77
2022/05/20 06:32:06;;;;;;;;;;;21.50;54.60;;;;;;493038;241;1062;-77
2022/05/20 06:34:08;;;;;;;;;;;21.50;54.70;;;;;;493041;241;1108;-77
2022/05/20 06:40:47;;;;;;;;;;;21.40;54.80;;;;;;492917;242;1108;-77
2022/05/20 06:42:49;;;;;;;;;;;21.40;54.90;;;;;;492980;241;1129;-77
2022/05/20 06:44:50;;;;;;;;;;;21.40;55.00;;;;;;492976;241;2171;-77
2022/05/20 06:46:52;;;;;;;;;;;21.50;55.00;;;;;;493031;241;1097;-77
2022/05/20 06:48:53;;;;;;;;;;;21.50;55.00;;;;;;492956;241;1101;-78
2022/05/20 06:50:54;;;;;;;;;;;21.50;55.00;;;;;;492852;241;1154;-77
2022/05/20 06:52:55;;;;;;;;;;;21.60;54.90;;;;;;492650;241;1138;-76
2022/05/20 06:54:57;;;;;;;;;;;21.60;55.00;;;;;;492825;241;1102;-77
2022/05/20 06:56:58;;;;;;;;;;;21.60;54.90;;;;;;492889;241;1140;-77
2022/05/20 06:58:59;;;;;;;;;;;21.70;54.90;;;;;;492780;241;1103;-77
2022/05/20 07:01:01;;;;;;;;;;;21.80;54.80;;;;;;493007;241;1201;-76
2022/05/20 07:03:02;;;;;;;;;;;21.90;54.80;;;;;;492733;242;1131;-77
2022/05/20 07:05:04;;;;;;;;;;;21.90;54.80;;;;;;492940;241;2171;-77
2022/05/20 07:07:05;;;;;;;;;;;21.80;54.80;;;;;;492377;241;1415;-77
2022/05/20 07:09:06;;;;;;;;;;;21.90;54.80;;;;;;492741;241;1176;-77
2022/05/20 07:11:07;;;;;;;;;;;21.90;54.70;;;;;;492940;241;1156;-77
2022/05/20 07:13:09;;;;;;;;;;;21.90;54.90;;;;;;492437;241;1267;-77
2022/05/20 07:15:10;;;;;;;;;;;21.90;54.90;;;;;;492462;241;1113;-78
2022/05/20 07:17:11;;;;;;;;;;;22.00;54.80;;;;;;492338;241;1432;-77
2022/05/20 07:19:13;;;;;;;;;;;22.00;54.90;;;;;;492372;241;1093;-77
2022/05/20 07:21:14;;;;;;;;;;;22.00;54.90;;;;;;492351;241;1103;-77
2022/05/20 07:23:15;;;;;;;;;;;22.00;54.80;;;;;;492419;241;1203;-77
2022/05/20 07:25:18;;;;;;;;;;;22.00;54.80;;;;;;492468;241;2175;-77
2022/05/20 07:27:18;;;;;;;;;;;22.10;54.80;;;;;;492678;242;1313;-77
2022/05/20 07:29:19;;;;;;;;;;;22.10;54.90;;;;;;492500;241;1041;-77
2022/05/20 07:31:23;;;;;;;;;;;22.10;54.90;;;;;;492649;241;1147;-77
2022/05/20 07:33:22;;;;;;;;;;;22.00;54.90;;;;;;492372;242;1355;-77
2022/05/20 07:35:24;;;;;;;;;;;22.10;55.00;;;;;;492327;241;1252;-77
2022/05/20 07:37:25;;;;;;;;;;;22.10;55.00;;;;;;492517;241;1128;-77
2022/05/20 07:39:26;;;;;;;;;;;22.10;55.00;;;;;;492518;241;1200;-77
2022/05/20 07:41:28;;;;;;;;;;;22.00;55.10;;;;;;492487;241;1113;-77
2022/05/20 07:43:29;;;;;;;;;;;22.10;55.10;;;;;;492552;241;1114;-77
2022/05/20 07:45:30;;;;;;;;;;;22.10;55.20;;;;;;492468;241;2164;-77
2022/05/20 07:47:32;;;;;;;;;;;22.00;55.30;;;;;;492473;241;1188;-77
2022/05/20 07:49:33;;;;;;;;;;;22.10;55.30;;;;;;492487;241;1035;-78
2022/05/20 07:51:34;;;;;;;;;;;22.10;55.30;;;;;;492455;241;973;-78
2022/05/20 07:53:37;;;;;;;;;;;22.00;55.30;;;;;;492430;241;1256;-77
2022/05/20 07:55:37;;;;;;;;;;;22.00;55.40;;;;;;492353;242;1425;-78
2022/05/20 07:57:39;;;;;;;;;;;22.10;55.40;;;;;;492857;241;1142;-78
2022/05/20 07:59:40;;;;;;;;;;;22.10;55.30;;;;;;492476;241;1074;-78
2022/05/20 08:01:41;;;;;;;;;;;22.10;55.30;;;;;;492405;241;1103;-78
2022/05/20 08:06:03;;;;;;;;;;;22.00;55.60;;;;;;492424;242;2124;-78
2022/05/20 08:08:03;;;;;;;;;;;22.10;55.40;;;;;;492845;241;1449;-77
2022/05/20 08:10:05;;;;;;;;;;;22.00;55.30;;;;;;492781;241;1325;-77
2022/05/20 08:12:06;;;;;;;;;;;22.00;55.30;;;;;;492728;241;1093;-77
2022/05/20 08:14:07;;;;;;;;;;;22.00;55.30;;;;;;492924;241;1124;-78
2022/05/20 08:16:09;;;;;;;;;;;22.00;55.20;;;;;;492343;241;1033;-78
2022/05/20 08:18:10;;;;;;;;;;;22.00;55.30;;;;;;492299;241;1125;-78
2022/05/20 08:20:11;;;;;;;;;;;22.00;55.20;;;;;;492364;241;1102;-78
2022/05/20 08:22:14;;;;;;;;;;;22.00;55.20;;;;;;492364;241;1167;-78
2022/05/20 08:24:14;;;;;;;;;;;22.00;55.20;;;;;;492302;241;1406;-78
2022/05/20 08:26:18;;;;;;;;;;;22.00;55.20;;;;;;492998;241;2186;-78
2022/05/20 08:28:17;;;;;;;;;;;22.00;55.30;;;;;;493078;242;1281;-78
2022/05/20 08:30:18;;;;;;;;;;;22.00;55.40;;;;;;492574;241;1041;-78
2022/05/20 08:32:20;;;;;;;;;;;21.90;55.50;;;;;;492587;241;1037;-78
2022/05/20 08:34:21;;;;;;;;;;;21.90;55.60;;;;;;492599;241;1100;-78
2022/05/20 08:36:22;;;;;;;;;;;22.00;55.40;;;;;;492550;240;1176;-79
2022/05/20 08:38:25;;;;;;;;;;;22.00;55.50;;;;;;492495;241;1057;-78
2022/05/20 08:40:25;;;;;;;;;;;21.90;55.40;;;;;;492824;242;1253;-77
2022/05/20 08:42:26;;;;;;;;;;;22.00;55.30;;;;;;492378;241;1110;-78
2022/05/20 08:44:28;;;;;;;;;;;22.00;55.10;;;;;;492619;241;1051;-78
2022/05/20 08:46:29;;;;;;;;;;;22.00;55.20;;;;;;492598;241;2191;-78
2022/05/20 08:48:30;;;;;;;;;;;22.10;55.00;;;;;;492535;241;1150;-78
2022/05/20 08:50:32;;;;;;;;;;;22.10;54.90;;;;;;492468;241;1095;-78
2022/05/20 08:52:33;;;;;;;;;;;22.00;55.10;;;;;;492910;241;1148;-77
2022/05/20 08:54:34;;;;;;;;;;;22.00;55.40;;;;;;492705;241;1057;-77
2022/05/20 08:56:36;;;;;;;;;;;22.00;55.40;;;;;;492231;241;1138;-77
2022/05/20 08:58:37;;;;;;;;;;;22.00;55.20;;;;;;492032;241;1333;-78
2022/05/20 09:00:38;;;;;;;;;;;22.00;55.20;;;;;;492263;241;1058;-77
2022/05/20 09:02:39;;;;;;;;;;;22.00;55.10;;;;;;492594;241;1093;-77
2022/05/20 09:04:41;;;;;;;;;;;22.00;55.00;;;;;;492353;241;1054;-78
2022/05/20 09:06:42;;;;;;;;;;;21.90;55.00;;;;;;492258;241;2163;-77
2022/05/20 09:08:45;;;;;;;;;;;21.90;54.90;;;;;;492343;241;1106;-78
2022/05/20 09:10:45;;;;;;;;;;;22.00;54.70;;;;;;492283;241;1279;-77
2022/05/20 09:12:47;;;;;;;;;;;22.00;54.80;;;;;;492377;241;1198;-77
2022/05/20 09:17:07;;;;;;;;;;;21.90;54.80;;;;;;492238;242;1138;-78
2022/05/20 09:19:08;;;;;;;;;;;21.90;54.80;;;;;;492232;241;1093;-78
2022/05/20 09:21:10;;;;;;;;;;;21.70;55.10;;;;;;492419;241;1104;-78
2022/05/20 09:23:11;;;;;;;;;;;21.80;55.10;;;;;;492737;241;1308;-77
2022/05/20 09:25:12;;;;;;;;;;;21.90;55.00;;;;;;492643;241;1154;-78
2022/05/20 09:27:13;;;;;;;;;;;21.80;55.10;;;;;;492795;241;2178;-78
2022/05/20 09:29:16;;;;;;;;;;;21.80;55.10;;;;;;492778;241;1203;-77
2022/05/20 09:31:16;;;;;;;;;;;21.90;54.90;;;;;;492794;241;1407;-78
2022/05/20 09:33:18;;;;;;;;;;;21.90;55.10;;;;;;492660;241;1250;-78
2022/05/20 09:35:19;;;;;;;;;;;21.90;54.80;;;;;;492629;241;1090;-77
2022/05/20 09:37:20;;;;;;;;;;;21.90;54.80;;;;;;492368;241;1139;-77
2022/05/20 09:39:22;;;;;;;;;;;21.90;54.90;;;;;;492521;241;1142;-77
2022/05/20 09:41:23;;;;;;;;;;;21.90;55.00;;;;;;492516;241;1211;-77
2022/05/20 09:43:25;;;;;;;;;;;21.90;54.90;;;;;;492563;241;1053;-77
2022/05/20 09:45:26;;;;;;;;;;;21.90;54.70;;;;;;492831;242;1428;-77
2022/05/20 09:47:27;;;;;;;;;;;22.00;54.70;;;;;;492280;241;2112;-77
2022/05/20 09:49:28;;;;;;;;;;;22.00;54.70;;;;;;492343;241;1133;-78
2022/05/20 09:51:29;;;;;;;;;;;21.90;54.80;;;;;;492347;241;1274;-78
2022/05/20 09:53:32;;;;;;;;;;;21.80;54.90;;;;;;492471;241;1231;-78
2022/05/20 09:55:32;;;;;;;;;;;21.80;55.00;;;;;;492871;241;1364;-77
2022/05/20 09:57:34;;;;;;;;;;;21.80;55.00;;;;;;492728;241;1097;-77
2022/05/20 09:59:35;;;;;;;;;;;21.90;54.90;;;;;;492779;242;1198;-78
2022/05/20 10:01:36;;;;;;;;;;;21.90;54.90;;;;;;492541;241;1072;-78
2022/05/20 10:03:38;;;;;;;;;;;21.80;55.00;;;;;;492784;242;1667;-78
2022/05/20 10:05:39;;;;;;;;;;;21.90;55.00;;;;;;492370;242;1232;-78
2022/05/20 10:07:40;;;;;;;;;;;21.80;55.00;;;;;;492306;241;2208;-78
2022/05/20 10:09:41;;;;;;;;;;;21.80;55.10;;;;;;492353;241;1238;-78
2022/05/20 10:11:43;;;;;;;;;;;21.90;55.00;;;;;;492810;241;1168;-78
2022/05/20 10:13:44;;;;;;;;;;;21.80;55.10;;;;;;492494;241;1071;-77
2022/05/20 10:15:46;;;;;;;;;;;21.70;55.20;;;;;;492809;241;1204;-77
2022/05/20 10:17:47;;;;;;;;;;;21.70;55.40;;;;;;492385;241;1084;-78
2022/05/20 10:19:50;;;;;;;;;;;21.80;55.20;;;;;;492393;241;1209;-78
2022/05/20 10:21:49;;;;;;;;;;;21.80;55.10;;;;;;492475;242;1306;-78
2022/05/20 10:23:51;;;;;;;;;;;21.80;55.20;;;;;;492805;241;1093;-77
2022/05/20 10:25:52;;;;;;;;;;;21.70;55.20;;;;;;492573;241;1122;-77
2022/05/20 10:27:53;;;;;;;;;;;21.80;55.30;;;;;;492821;241;2171;-78
2022/05/20 10:34:34;;;;;;;;;;;21.80;55.00;;;;;;492651;241;1174;-78
2022/05/20 10:36:35;;;;;;;;;;;21.70;54.90;;;;;;492337;241;1204;-78
2022/05/20 10:38:36;;;;;;;;;;;21.70;55.10;;;;;;492534;241;1031;-78
2022/05/20 10:40:38;;;;;;;;;;;21.60;55.20;;;;;;492453;241;1136;-78
2022/05/20 10:42:39;;;;;;;;;;;21.60;55.20;;;;;;492541;242;1352;-78
2022/05/20 10:49:18;;;;;;;;;;;21.60;55.20;;;;;;493016;242;1098;-78
2022/05/20 10:51:20;;;;;;;;;;;21.70;55.20;;;;;;492816;241;1149;-78
2022/05/20 10:53:21;;;;;;;;;;;21.70;55.10;;;;;;492581;241;1170;-78
2022/05/20 10:55:22;;;;;;;;;;;21.60;55.20;;;;;;492885;241;1139;-78
2022/05/20 10:57:24;;;;;;;;;;;21.60;55.30;;;;;;492207;241;1182;-78
2022/05/20 10:59:25;;;;;;;;;;;21.50;55.30;;;;;;492430;239;1118;-78
2022/05/20 11:01:26;;;;;;;;;;;21.60;55.10;;;;;;492580;241;1052;-78
2022/05/20 11:03:28;;;;;;;;;;;21.60;55.10;;;;;;492777;241;1234;-77
2022/05/20 11:05:29;;;;;;;;;;;21.60;55.20;;;;;;492575;241;1152;-77
2022/05/20 11:07:30;;;;;;;;;;;21.60;55.20;;;;;;492653;241;2211;-78
2022/05/20 11:09:32;;;;;;;;;;;21.50;55.20;;;;;;492587;241;1066;-78
2022/05/20 11:11:34;;;;;;;;;;;21.50;54.90;;;;;;492645;241;1129;-78
2022/05/20 11:13:36;;;;;;;;;;;21.50;55.00;;;;;;492955;241;1450;-78
2022/05/20 11:15:36;;;;;;;;;;;21.50;55.00;;;;;;492694;241;1389;-78
2022/05/20 11:17:38;;;;;;;;;;;21.50;55.10;;;;;;492509;241;1111;-78
2022/05/20 11:19:39;;;;;;;;;;;21.60;55.00;;;;;;492641;239;1116;-78
2022/05/20 11:21:40;;;;;;;;;;;21.60;54.90;;;;;;492692;241;1123;-78
2022/05/20 11:23:42;;;;;;;;;;;21.60;54.90;;;;;;492367;241;1088;-78
2022/05/20 11:25:43;;;;;;;;;;;21.50;55.00;;;;;;492439;241;1222;-77
2022/05/20 11:27:45;;;;;;;;;;;21.50;55.00;;;;;;492489;241;2179;-78
2022/05/20 11:29:46;;;;;;;;;;;21.60;55.00;;;;;;492479;241;1164;-78
2022/05/20 11:31:48;;;;;;;;;;;21.60;55.00;;;;;;492508;241;1167;-78
2022/05/20 11:33:49;;;;;;;;;;;21.50;55.10;;;;;;492406;242;1501;-78
2022/05/20 11:35:50;;;;;;;;;;;21.60;54.90;;;;;;492576;241;1080;-78
2022/05/20 11:37:51;;;;;;;;;;;21.70;54.70;;;;;;492662;241;1074;-78
2022/05/20 11:39:53;;;;;;;;;;;21.70;54.80;;;;;;493078;242;1091;-78
2022/05/20 11:41:54;;;;;;;;;;;21.70;54.90;;;;;;492501;241;1205;-78
2022/05/20 11:43:55;;;;;;;;;;;21.70;54.90;;;;;;492493;242;1112;-78
2022/05/20 11:45:57;;;;;;;;;;;21.80;54.60;;;;;;492586;241;1204;-78
2022/05/20 11:47:58;;;;;;;;;;;21.90;54.50;;;;;;492484;241;2199;-78
2022/05/20 11:49:59;;;;;;;;;;;21.90;54.50;;;;;;492518;241;1075;-78
2022/05/20 11:52:01;;;;;;;;;;;21.90;54.50;;;;;;492943;241;1135;-78
2022/05/20 11:54:02;;;;;;;;;;;21.80;54.50;;;;;;492430;241;1046;-78
2022/05/20 11:56:06;;;;;;;;;;;21.80;54.40;;;;;;492329;241;1109;-78
2022/05/20 11:58:05;;;;;;;;;;;21.80;54.40;;;;;;491780;242;1400;-78
2022/05/20 12:00:06;;;;;;;;;;;21.90;54.60;;;;;;492451;241;1099;-78
2022/05/20 12:02:07;;;;;;;;;;;21.80;54.60;;;;;;492415;241;1108;-78
2022/05/20 12:04:09;;;;;;;;;;;21.80;54.70;;;;;;492542;241;1075;-78
2022/05/20 12:06:10;;;;;;;;;;;21.70;54.70;;;;;;492533;241;1080;-78
2022/05/20 12:08:11;;;;;;;;;;;21.80;54.50;;;;;;492851;241;2162;-78
2022/05/20 12:10:13;;;;;;;;;;;21.80;54.60;;;;;;492488;241;1002;-78
2022/05/20 12:12:15;;;;;;;;;;;21.80;54.60;;;;;;492786;241;1173;-79
2022/05/20 12:14:16;;;;;;;;;;;21.80;54.60;;;;;;492924;242;1469;-78
2022/05/20 12:16:17;;;;;;;;;;;21.70;54.80;;;;;;492604;241;1191;-78
2022/05/20 12:18:18;;;;;;;;;;;21.80;54.80;;;;;;493080;241;1065;-78
2022/05/20 12:24:58;;;;;;;;;;;21.90;54.60;;;;;;492424;242;1104;-78
2022/05/20 12:26:59;;;;;;;;;;;21.80;54.70;;;;;;492525;241;2259;-78
2022/05/20 12:29:01;;;;;;;;;;;21.90;54.70;;;;;;492672;242;1081;-78
2022/05/20 12:31:02;;;;;;;;;;;21.80;54.70;;;;;;492725;241;1174;-78